sensor_id;sensor_type;location;lat;lon;timestamp;P1;durP1;ratioP1;P2;durP2;ratioP2
67164;SDS011;54093;50.014;19.984;2023-08-24T00:07:08;5.03;;;3.78;;
67164;SDS011;54093;50.014;19.984;2023-08-24T00:16:29;3.63;;;3.42;;
67164;SDS011;54093;50.014;19.984;2023-08-24T00:25:50;5.10;;;4.57;;
67164;SDS011;54093;50.014;19.984;2023-08-24T00:35:11;6.18;;;3.70;;
67164;SDS011;54093;50.014;19.984;2023-08-24T00:44:32;3.30;;;3.10;;
67164;SDS011;54093;50.014;19.984;2023-08-24T00:53:54;3.17;;;2.97;;
67164;SDS011;54093;50.014;19.984;2023-08-24T01:03:15;5.47;;;3.17;;
67164;SDS011;54093;50.014;19.984;2023-08-24T01:32:24;6.38;;;3.30;;
67164;SDS011;54093;50.014;19.984;2023-08-24T01:41:45;5.50;;;4.28;;
67164;SDS011;54093;50.014;19.984;2023-08-24T01:51:10;4.10;;;3.00;;
67164;SDS011;54093;50.014;19.984;2023-08-24T02:00:31;4.90;;;3.60;;
67164;SDS011;54093;50.014;19.984;2023-08-24T02:09:52;3.75;;;3.55;;
67164;SDS011;54093;50.014;19.984;2023-08-24T02:19:13;4.72;;;3.53;;
67164;SDS011;54093;50.014;19.984;2023-08-24T02:28:35;3.97;;;3.45;;
67164;SDS011;54093;50.014;19.984;2023-08-24T02:37:57;5.28;;;4.03;;
67164;SDS011;54093;50.014;19.984;2023-08-24T02:47:18;3.80;;;2.83;;
67164;SDS011;54093;50.014;19.984;2023-08-24T02:56:39;6.13;;;3.72;;
67164;SDS011;54093;50.014;19.984;2023-08-24T03:06:04;3.63;;;3.30;;
67164;SDS011;54093;50.014;19.984;2023-08-24T03:15:26;5.30;;;3.50;;
67164;SDS011;54093;50.014;19.984;2023-08-24T03:24:47;4.22;;;3.83;;
67164;SDS011;54093;50.014;19.984;2023-08-24T03:34:08;3.60;;;3.40;;
67164;SDS011;54093;50.014;19.984;2023-08-24T03:43:32;6.47;;;5.85;;
67164;SDS011;54093;50.014;19.984;2023-08-24T03:52:54;7.95;;;7.05;;
67164;SDS011;54093;50.014;19.984;2023-08-24T04:02:15;6.40;;;5.82;;
67164;SDS011;54093;50.014;19.984;2023-08-24T04:11:37;6.32;;;5.30;;
67164;SDS011;54093;50.014;19.984;2023-08-24T04:20:57;5.63;;;5.22;;
67164;SDS011;54093;50.014;19.984;2023-08-24T04:30:18;6.60;;;6.13;;
67164;SDS011;54093;50.014;19.984;2023-08-24T04:39:39;12.43;;;8.55;;
67164;SDS011;54093;50.014;19.984;2023-08-24T04:49:00;9.60;;;8.85;;
67164;SDS011;54093;50.014;19.984;2023-08-24T04:58:24;11.43;;;10.45;;
67164;SDS011;54093;50.014;19.984;2023-08-24T05:07:46;10.32;;;9.52;;
67164;SDS011;54093;50.014;19.984;2023-08-24T05:17:07;11.80;;;10.70;;
67164;SDS011;54093;50.014;19.984;2023-08-24T05:26:28;9.57;;;8.70;;
67164;SDS011;54093;50.014;19.984;2023-08-24T05:35:49;11.70;;;10.40;;
67164;SDS011;54093;50.014;19.984;2023-08-24T05:45:11;11.68;;;10.48;;
67164;SDS011;54093;50.014;19.984;2023-08-24T05:54:32;12.40;;;9.40;;
67164;SDS011;54093;50.014;19.984;2023-08-24T06:03:53;13.90;;;11.45;;
67164;SDS011;54093;50.014;19.984;2023-08-24T06:13:14;20.60;;;12.73;;
67164;SDS011;54093;50.014;19.984;2023-08-24T06:22:35;18.55;;;11.70;;
67164;SDS011;54093;50.014;19.984;2023-08-24T06:31:56;13.32;;;10.00;;
67164;SDS011;54093;50.014;19.984;2023-08-24T06:41:17;12.05;;;10.90;;
67164;SDS011;54093;50.014;19.984;2023-08-24T06:50:40;11.55;;;8.80;;
67164;SDS011;54093;50.014;19.984;2023-08-24T07:00:01;13.55;;;10.20;;
67164;SDS011;54093;50.014;19.984;2023-08-24T07:09:27;9.40;;;8.13;;
67164;SDS011;54093;50.014;19.984;2023-08-24T07:18:49;7.95;;;7.25;;
67164;SDS011;54093;50.014;19.984;2023-08-24T07:28:10;9.90;;;8.52;;
67164;SDS011;54093;50.014;19.984;2023-08-24T07:37:31;8.50;;;6.63;;
67164;SDS011;54093;50.014;19.984;2023-08-24T07:46:52;9.75;;;8.43;;
67164;SDS011;54093;50.014;19.984;2023-08-24T07:56:13;10.93;;;6.20;;
67164;SDS011;54093;50.014;19.984;2023-08-24T08:05:34;9.73;;;8.73;;
67164;SDS011;54093;50.014;19.984;2023-08-24T08:14:55;12.75;;;6.90;;
67164;SDS011;54093;50.014;19.984;2023-08-24T08:24:16;6.25;;;5.75;;
67164;SDS011;54093;50.014;19.984;2023-08-24T08:33:37;9.82;;;5.45;;
67164;SDS011;54093;50.014;19.984;2023-08-24T08:42:58;6.70;;;4.63;;
67164;SDS011;54093;50.014;19.984;2023-08-24T08:52:19;7.30;;;5.63;;
67164;SDS011;54093;50.014;19.984;2023-08-24T09:01:40;6.50;;;5.65;;
67164;SDS011;54093;50.014;19.984;2023-08-24T09:11:01;5.18;;;4.78;;
67164;SDS011;54093;50.014;19.984;2023-08-24T09:20:23;5.25;;;3.97;;
67164;SDS011;54093;50.014;19.984;2023-08-24T09:29:51;3.58;;;3.28;;
67164;SDS011;54093;50.014;19.984;2023-08-24T09:39:15;6.10;;;3.70;;
67164;SDS011;54093;50.014;19.984;2023-08-24T09:48:41;5.20;;;3.30;;
67164;SDS011;54093;50.014;19.984;2023-08-24T09:58:02;3.47;;;3.17;;
67164;SDS011;54093;50.014;19.984;2023-08-24T10:07:24;3.17;;;2.97;;
67164;SDS011;54093;50.014;19.984;2023-08-24T10:16:47;3.90;;;3.03;;
67164;SDS011;54093;50.014;19.984;2023-08-24T10:26:08;2.45;;;2.30;;
67164;SDS011;54093;50.014;19.984;2023-08-24T10:35:31;2.40;;;2.30;;
67164;SDS011;54093;50.014;19.984;2023-08-24T10:44:53;2.75;;;2.47;;
67164;SDS011;54093;50.014;19.984;2023-08-24T10:54:14;3.50;;;2.85;;
67164;SDS011;54093;50.014;19.984;2023-08-24T11:03:35;3.80;;;2.00;;
67164;SDS011;54093;50.014;19.984;2023-08-24T11:13:06;2.72;;;2.53;;
67164;SDS011;54093;50.014;19.984;2023-08-24T11:22:28;3.63;;;2.10;;
67164;SDS011;54093;50.014;19.984;2023-08-24T11:31:50;3.20;;;2.83;;
67164;SDS011;54093;50.014;19.984;2023-08-24T11:41:12;3.38;;;3.08;;
67164;SDS011;54093;50.014;19.984;2023-08-24T11:50:34;3.73;;;2.87;;
67164;SDS011;54093;50.014;19.984;2023-08-24T11:59:55;5.10;;;2.90;;
67164;SDS011;54093;50.014;19.984;2023-08-24T12:09:16;3.50;;;2.88;;
67164;SDS011;54093;50.014;19.984;2023-08-24T12:18:54;2.80;;;2.60;;
67164;SDS011;54093;50.014;19.984;2023-08-24T12:28:16;7.10;;;2.50;;
67164;SDS011;54093;50.014;19.984;2023-08-24T12:37:37;3.72;;;2.50;;
67164;SDS011;54093;50.014;19.984;2023-08-24T12:47:00;2.83;;;2.67;;
67164;SDS011;54093;50.014;19.984;2023-08-24T12:56:22;4.45;;;2.53;;
67164;SDS011;54093;50.014;19.984;2023-08-24T13:05:43;5.03;;;2.30;;
67164;SDS011;54093;50.014;19.984;2023-08-24T13:15:04;5.35;;;2.50;;
67164;SDS011;54093;50.014;19.984;2023-08-24T13:24:25;6.93;;;2.60;;
67164;SDS011;54093;50.014;19.984;2023-08-24T13:33:46;3.33;;;2.88;;
67164;SDS011;54093;50.014;19.984;2023-08-24T13:43:10;3.30;;;2.60;;
67164;SDS011;54093;50.014;19.984;2023-08-24T13:52:31;4.60;;;2.72;;
67164;SDS011;54093;50.014;19.984;2023-08-24T14:01:52;3.13;;;2.33;;
67164;SDS011;54093;50.014;19.984;2023-08-24T14:11:14;2.80;;;2.60;;
67164;SDS011;54093;50.014;19.984;2023-08-24T14:20:38;2.75;;;2.55;;
67164;SDS011;54093;50.014;19.984;2023-08-24T14:30:02;5.95;;;2.45;;
67164;SDS011;54093;50.014;19.984;2023-08-24T14:39:24;5.68;;;3.17;;
67164;SDS011;54093;50.014;19.984;2023-08-24T14:48:47;6.13;;;2.80;;
67164;SDS011;54093;50.014;19.984;2023-08-24T14:58:08;4.65;;;2.50;;
67164;SDS011;54093;50.014;19.984;2023-08-24T15:07:30;4.57;;;2.60;;
67164;SDS011;54093;50.014;19.984;2023-08-24T15:17:05;4.00;;;2.78;;
67164;SDS011;54093;50.014;19.984;2023-08-24T15:26:26;4.63;;;2.50;;
67164;SDS011;54093;50.014;19.984;2023-08-24T15:35:47;4.53;;;2.78;;
67164;SDS011;54093;50.014;19.984;2023-08-24T15:45:08;2.60;;;2.40;;
67164;SDS011;54093;50.014;19.984;2023-08-24T15:54:29;5.05;;;2.88;;
67164;SDS011;54093;50.014;19.984;2023-08-24T16:03:51;2.80;;;2.60;;
67164;SDS011;54093;50.014;19.984;2023-08-24T16:13:12;3.72;;;2.58;;
67164;SDS011;54093;50.014;19.984;2023-08-24T16:22:34;7.38;;;2.88;;
67164;SDS011;54093;50.014;19.984;2023-08-24T16:31:55;3.20;;;3.00;;
67164;SDS011;54093;50.014;19.984;2023-08-24T16:41:16;3.47;;;3.05;;
67164;SDS011;54093;50.014;19.984;2023-08-24T16:50:36;3.47;;;2.92;;
67164;SDS011;54093;50.014;19.984;2023-08-24T16:59:57;3.00;;;2.80;;
67164;SDS011;54093;50.014;19.984;2023-08-24T17:09:18;5.32;;;2.85;;
67164;SDS011;54093;50.014;19.984;2023-08-24T17:18:39;6.15;;;3.17;;
67164;SDS011;54093;50.014;19.984;2023-08-24T17:28:00;6.45;;;3.50;;
67164;SDS011;54093;50.014;19.984;2023-08-24T17:37:21;3.38;;;3.13;;
67164;SDS011;54093;50.014;19.984;2023-08-24T17:46:42;5.90;;;3.55;;
67164;SDS011;54093;50.014;19.984;2023-08-24T17:56:03;3.22;;;3.03;;
67164;SDS011;54093;50.014;19.984;2023-08-24T18:05:24;3.70;;;3.50;;
67164;SDS011;54093;50.014;19.984;2023-08-24T18:14:45;5.47;;;2.97;;
67164;SDS011;54093;50.014;19.984;2023-08-24T18:24:06;7.10;;;3.70;;
67164;SDS011;54093;50.014;19.984;2023-08-24T18:33:28;5.25;;;3.40;;
67164;SDS011;54093;50.014;19.984;2023-08-24T18:42:48;9.02;;;3.88;;
67164;SDS011;54093;50.014;19.984;2023-08-24T18:52:09;4.15;;;3.67;;
67164;SDS011;54093;50.014;19.984;2023-08-24T19:01:30;5.10;;;4.70;;
67164;SDS011;54093;50.014;19.984;2023-08-24T19:10:54;5.68;;;3.70;;
67164;SDS011;54093;50.014;19.984;2023-08-24T19:20:15;5.75;;;4.90;;
67164;SDS011;54093;50.014;19.984;2023-08-24T19:29:36;13.70;;;4.43;;
67164;SDS011;54093;50.014;19.984;2023-08-24T19:38:57;8.77;;;4.90;;
67164;SDS011;54093;50.014;19.984;2023-08-24T19:48:18;5.15;;;4.18;;
67164;SDS011;54093;50.014;19.984;2023-08-24T19:57:39;5.00;;;4.60;;
67164;SDS011;54093;50.014;19.984;2023-08-24T20:07:00;6.10;;;5.47;;
67164;SDS011;54093;50.014;19.984;2023-08-24T20:16:23;4.95;;;4.28;;
67164;SDS011;54093;50.014;19.984;2023-08-24T20:25:44;4.80;;;4.40;;
67164;SDS011;54093;50.014;19.984;2023-08-24T20:35:05;8.98;;;4.25;;
67164;SDS011;54093;50.014;19.984;2023-08-24T20:44:27;4.75;;;3.90;;
67164;SDS011;54093;50.014;19.984;2023-08-24T20:53:47;4.70;;;4.30;;
67164;SDS011;54093;50.014;19.984;2023-08-24T21:03:11;4.50;;;4.10;;
67164;SDS011;54093;50.014;19.984;2023-08-24T21:12:32;5.85;;;4.80;;
67164;SDS011;54093;50.014;19.984;2023-08-24T21:21:53;3.78;;;3.47;;
67164;SDS011;54093;50.014;19.984;2023-08-24T21:31:14;6.22;;;4.30;;
67164;SDS011;54093;50.014;19.984;2023-08-24T21:40:39;5.15;;;4.82;;
67164;SDS011;54093;50.014;19.984;2023-08-24T21:50:01;4.50;;;4.20;;
67164;SDS011;54093;50.014;19.984;2023-08-24T21:59:24;6.30;;;4.45;;
67164;SDS011;54093;50.014;19.984;2023-08-24T22:08:49;6.13;;;4.10;;
67164;SDS011;54093;50.014;19.984;2023-08-24T22:18:10;6.72;;;4.40;;
67164;SDS011;54093;50.014;19.984;2023-08-24T22:27:31;4.70;;;4.40;;
67164;SDS011;54093;50.014;19.984;2023-08-24T22:36:56;4.53;;;4.10;;
67164;SDS011;54093;50.014;19.984;2023-08-24T22:46:21;5.85;;;4.28;;
67164;SDS011;54093;50.014;19.984;2023-08-24T22:55:45;4.70;;;4.30;;
67164;SDS011;54093;50.014;19.984;2023-08-24T23:05:07;4.55;;;4.15;;
67164;SDS011;54093;50.014;19.984;2023-08-24T23:14:28;5.38;;;4.97;;
67164;SDS011;54093;50.014;19.984;2023-08-24T23:23:49;10.13;;;5.95;;
67164;SDS011;54093;50.014;19.984;2023-08-24T23:33:11;5.45;;;4.72;;
67164;SDS011;54093;50.014;19.984;2023-08-24T23:42:34;5.35;;;4.57;;
67164;SDS011;54093;50.014;19.984;2023-08-24T23:51:55;4.65;;;4.35;;
